sensor_id;sensor_type;location;lat;lon;timestamp;pressure;altitude;pressure_sealevel;temperature;humidity
36454;BME280;22478;51.740;-1.314;2023-04-15T00:00:23;99755.21;;;-2.30;100.00
36454;BME280;22478;51.740;-1.314;2023-04-15T00:02:51;99760.32;;;-2.37;100.00
36454;BME280;22478;51.740;-1.314;2023-04-15T00:05:18;99765.88;;;-2.88;100.00
36454;BME280;22478;51.740;-1.314;2023-04-15T00:07:45;99767.22;;;-3.16;100.00
36454;BME280;22478;51.740;-1.314;2023-04-15T00:10:13;99770.93;;;-3.12;100.00
36454;BME280;22478;51.740;-1.314;2023-04-15T00:12:41;99778.71;;;-2.91;100.00
36454;BME280;22478;51.740;-1.314;2023-04-15T00:15:09;99789.53;;;-2.88;100.00
36454;BME280;22478;51.740;-1.314;2023-04-15T00:17:36;99790.45;;;-3.37;100.00
36454;BME280;22478;51.740;-1.314;2023-04-15T00:20:04;99788.05;;;-3.63;100.00
36454;BME280;22478;51.740;-1.314;2023-04-15T00:22:31;99789.88;;;-3.30;100.00
36454;BME280;22478;51.740;-1.314;2023-04-15T00:24:59;99786.83;;;-2.59;100.00
36454;BME280;22478;51.740;-1.314;2023-04-15T00:27:26;99790.77;;;-3.41;100.00
36454;BME280;22478;51.740;-1.314;2023-04-15T00:29:53;99794.52;;;-3.14;100.00
36454;BME280;22478;51.740;-1.314;2023-04-15T00:32:20;99796.45;;;-3.66;100.00
36454;BME280;22478;51.740;-1.314;2023-04-15T00:34:47;99803.02;;;-4.04;100.00
36454;BME280;22478;51.740;-1.314;2023-04-15T00:37:14;99804.13;;;-3.42;100.00
36454;BME280;22478;51.740;-1.314;2023-04-15T00:39:42;99804.16;;;-2.73;100.00
36454;BME280;22478;51.740;-1.314;2023-04-15T00:42:09;99807.53;;;-3.46;100.00
36454;BME280;22478;51.740;-1.314;2023-04-15T00:44:36;99801.77;;;-1.93;100.00
36454;BME280;22478;51.740;-1.314;2023-04-15T00:47:04;99802.62;;;-2.65;100.00
36454;BME280;22478;51.740;-1.314;2023-04-15T00:49:33;99803.29;;;-1.21;100.00
36454;BME280;22478;51.740;-1.314;2023-04-15T00:51:59;99805.35;;;-2.35;100.00
36454;BME280;22478;51.740;-1.314;2023-04-15T00:54:27;99809.37;;;-2.21;100.00
36454;BME280;22478;51.740;-1.314;2023-04-15T00:56:54;99816.00;;;-2.68;100.00
36454;BME280;22478;51.740;-1.314;2023-04-15T00:59:21;99817.90;;;-1.80;100.00
36454;BME280;22478;51.740;-1.314;2023-04-15T01:01:49;99825.05;;;-2.43;100.00
36454;BME280;22478;51.740;-1.314;2023-04-15T01:04:17;99834.59;;;-3.09;100.00
36454;BME280;22478;51.740;-1.314;2023-04-15T01:06:44;99834.82;;;-2.83;100.00
36454;BME280;22478;51.740;-1.314;2023-04-15T01:09:12;99825.72;;;-0.80;100.00
36454;BME280;22478;51.740;-1.314;2023-04-15T01:11:40;99825.40;;;-2.00;100.00
36454;BME280;22478;51.740;-1.314;2023-04-15T01:14:08;99825.32;;;-1.58;100.00
36454;BME280;22478;51.740;-1.314;2023-04-15T01:16:37;99836.10;;;-2.79;100.00
36454;BME280;22478;51.740;-1.314;2023-04-15T01:19:05;99847.78;;;-3.77;100.00
36454;BME280;22478;51.740;-1.314;2023-04-15T01:21:35;99855.67;;;-2.72;100.00
36454;BME280;22478;51.740;-1.314;2023-04-15T01:24:08;99856.54;;;-2.81;100.00
36454;BME280;22478;51.740;-1.314;2023-04-15T01:26:36;99859.10;;;-3.13;100.00
36454;BME280;22478;51.740;-1.314;2023-04-15T01:29:04;99865.41;;;-2.62;100.00
36454;BME280;22478;51.740;-1.314;2023-04-15T01:31:31;99864.07;;;-2.87;100.00
36454;BME280;22478;51.740;-1.314;2023-04-15T01:33:59;99858.07;;;-1.28;100.00
36454;BME280;22478;51.740;-1.314;2023-04-15T01:36:27;99872.18;;;-3.25;100.00
36454;BME280;22478;51.740;-1.314;2023-04-15T01:38:55;99871.51;;;-2.28;100.00
36454;BME280;22478;51.740;-1.314;2023-04-15T01:41:24;99881.91;;;-3.26;100.00
36454;BME280;22478;51.740;-1.314;2023-04-15T01:43:51;99885.53;;;-2.51;100.00
36454;BME280;22478;51.740;-1.314;2023-04-15T01:46:19;99886.87;;;-2.02;100.00
36454;BME280;22478;51.740;-1.314;2023-04-15T01:48:46;99893.58;;;-2.55;100.00
36454;BME280;22478;51.740;-1.314;2023-04-15T01:51:14;99898.10;;;-2.57;100.00
36454;BME280;22478;51.740;-1.314;2023-04-15T01:53:41;99902.83;;;-2.57;100.00
36454;BME280;22478;51.740;-1.314;2023-04-15T01:56:08;99896.41;;;-2.39;100.00
36454;BME280;22478;51.740;-1.314;2023-04-15T01:58:36;99894.72;;;-1.36;100.00
36454;BME280;22478;51.740;-1.314;2023-04-15T02:01:03;99898.41;;;-1.31;100.00
36454;BME280;22478;51.740;-1.314;2023-04-15T02:03:30;99909.98;;;-3.42;100.00
36454;BME280;22478;51.740;-1.314;2023-04-15T02:05:58;99907.62;;;-3.08;100.00
36454;BME280;22478;51.740;-1.314;2023-04-15T02:08:26;99918.91;;;-3.20;100.00
36454;BME280;22478;51.740;-1.314;2023-04-15T02:10:53;99919.45;;;-3.08;100.00
36454;BME280;22478;51.740;-1.314;2023-04-15T02:13:20;99922.31;;;-2.74;100.00
36454;BME280;22478;51.740;-1.314;2023-04-15T02:15:47;99924.67;;;-2.32;100.00
36454;BME280;22478;51.740;-1.314;2023-04-15T02:18:15;99927.90;;;-3.56;100.00
36454;BME280;22478;51.740;-1.314;2023-04-15T02:20:43;99923.50;;;-2.92;100.00
36454;BME280;22478;51.740;-1.314;2023-04-15T02:23:10;99932.68;;;-2.60;100.00
36454;BME280;22478;51.740;-1.314;2023-04-15T02:25:37;99930.73;;;-3.31;100.00
36454;BME280;22478;51.740;-1.314;2023-04-15T02:28:04;99935.64;;;-3.43;100.00
36454;BME280;22478;51.740;-1.314;2023-04-15T02:30:32;99937.91;;;-2.83;100.00
36454;BME280;22478;51.740;-1.314;2023-04-15T02:32:59;99941.64;;;-3.96;100.00
36454;BME280;22478;51.740;-1.314;2023-04-15T02:35:27;99939.54;;;-3.05;100.00
36454;BME280;22478;51.740;-1.314;2023-04-15T02:37:54;99942.56;;;-2.90;100.00
36454;BME280;22478;51.740;-1.314;2023-04-15T02:40:21;99945.68;;;-1.96;100.00
36454;BME280;22478;51.740;-1.314;2023-04-15T02:42:49;99950.92;;;-3.39;100.00
36454;BME280;22478;51.740;-1.314;2023-04-15T02:45:16;99957.99;;;-3.28;100.00
36454;BME280;22478;51.740;-1.314;2023-04-15T02:47:43;99963.35;;;-3.24;100.00
36454;BME280;22478;51.740;-1.314;2023-04-15T02:50:12;99965.08;;;-3.55;100.00
36454;BME280;22478;51.740;-1.314;2023-04-15T02:52:38;99966.69;;;-2.65;100.00
36454;BME280;22478;51.740;-1.314;2023-04-15T02:55:06;99974.65;;;-3.04;100.00
36454;BME280;22478;51.740;-1.314;2023-04-15T02:57:34;99975.59;;;-3.05;100.00
36454;BME280;22478;51.740;-1.314;2023-04-15T03:00:01;99979.06;;;-2.72;100.00
36454;BME280;22478;51.740;-1.314;2023-04-15T03:02:33;99982.48;;;-2.54;100.00
36454;BME280;22478;51.740;-1.314;2023-04-15T03:05:01;99982.84;;;-3.08;100.00
36454;BME280;22478;51.740;-1.314;2023-04-15T03:07:28;99990.96;;;-3.47;100.00
36454;BME280;22478;51.740;-1.314;2023-04-15T03:09:55;99981.14;;;-2.23;100.00
36454;BME280;22478;51.740;-1.314;2023-04-15T03:12:22;99983.09;;;-3.53;100.00
36454;BME280;22478;51.740;-1.314;2023-04-15T03:14:50;99985.68;;;-2.54;100.00
36454;BME280;22478;51.740;-1.314;2023-04-15T03:17:17;99983.53;;;-3.27;100.00
36454;BME280;22478;51.740;-1.314;2023-04-15T03:19:44;99988.71;;;-2.87;100.00
36454;BME280;22478;51.740;-1.314;2023-04-15T03:22:12;100000.63;;;-3.39;100.00
36454;BME280;22478;51.740;-1.314;2023-04-15T03:24:39;100012.48;;;-3.50;100.00
36454;BME280;22478;51.740;-1.314;2023-04-15T03:27:06;100017.61;;;-3.09;100.00
36454;BME280;22478;51.740;-1.314;2023-04-15T03:29:33;100019.42;;;-2.69;100.00
36454;BME280;22478;51.740;-1.314;2023-04-15T03:32:00;100026.84;;;-3.10;100.00
36454;BME280;22478;51.740;-1.314;2023-04-15T03:34:27;100034.12;;;-3.89;100.00
36454;BME280;22478;51.740;-1.314;2023-04-15T03:36:55;100033.27;;;-2.69;100.00
36454;BME280;22478;51.740;-1.314;2023-04-15T03:39:22;100037.27;;;-2.71;100.00
36454;BME280;22478;51.740;-1.314;2023-04-15T03:41:49;100045.69;;;-2.83;100.00
36454;BME280;22478;51.740;-1.314;2023-04-15T03:44:17;100059.35;;;-3.28;100.00
36454;BME280;22478;51.740;-1.314;2023-04-15T03:46:43;100052.28;;;-2.85;100.00
36454;BME280;22478;51.740;-1.314;2023-04-15T03:49:12;100057.68;;;-3.44;100.00
36454;BME280;22478;51.740;-1.314;2023-04-15T03:51:39;100064.00;;;-3.68;100.00
36454;BME280;22478;51.740;-1.314;2023-04-15T03:54:06;100062.41;;;-3.12;100.00
36454;BME280;22478;51.740;-1.314;2023-04-15T03:56:33;100059.00;;;-2.60;100.00
36454;BME280;22478;51.740;-1.314;2023-04-15T03:59:01;100070.40;;;-3.13;100.00
36454;BME280;22478;51.740;-1.314;2023-04-15T04:01:28;100060.51;;;-3.08;100.00
36454;BME280;22478;51.740;-1.314;2023-04-15T04:03:55;100062.57;;;-2.83;100.00
36454;BME280;22478;51.740;-1.314;2023-04-15T04:06:23;100067.10;;;-2.74;100.00
36454;BME280;22478;51.740;-1.314;2023-04-15T04:08:50;100066.85;;;-2.21;100.00
36454;BME280;22478;51.740;-1.314;2023-04-15T04:11:17;100070.41;;;-2.67;100.00
36454;BME280;22478;51.740;-1.314;2023-04-15T04:13:44;100079.16;;;-3.17;100.00
36454;BME280;22478;51.740;-1.314;2023-04-15T04:16:11;100070.56;;;-3.27;100.00
36454;BME280;22478;51.740;-1.314;2023-04-15T04:18:38;100073.32;;;-2.16;100.00
36454;BME280;22478;51.740;-1.314;2023-04-15T04:21:05;100083.02;;;-3.95;100.00
36454;BME280;22478;51.740;-1.314;2023-04-15T04:23:33;100091.94;;;-2.94;100.00
36454;BME280;22478;51.740;-1.314;2023-04-15T04:26:00;100083.26;;;-2.32;100.00
36454;BME280;22478;51.740;-1.314;2023-04-15T04:28:27;100092.73;;;-3.53;100.00
36454;BME280;22478;51.740;-1.314;2023-04-15T04:30:55;100100.38;;;-2.66;100.00
36454;BME280;22478;51.740;-1.314;2023-04-15T04:33:22;100098.03;;;-2.39;100.00
36454;BME280;22478;51.740;-1.314;2023-04-15T04:35:50;100112.64;;;-3.10;100.00
36454;BME280;22478;51.740;-1.314;2023-04-15T04:38:17;100108.59;;;-2.52;100.00
36454;BME280;22478;51.740;-1.314;2023-04-15T04:40:44;100124.62;;;-3.02;100.00
36454;BME280;22478;51.740;-1.314;2023-04-15T04:43:11;100124.13;;;-2.22;100.00
36454;BME280;22478;51.740;-1.314;2023-04-15T04:45:38;100124.75;;;-2.47;100.00
36454;BME280;22478;51.740;-1.314;2023-04-15T04:48:06;100138.97;;;-2.51;100.00
36454;BME280;22478;51.740;-1.314;2023-04-15T04:50:33;100141.60;;;-3.25;100.00
36454;BME280;22478;51.740;-1.314;2023-04-15T04:53:01;100151.02;;;-3.74;100.00
36454;BME280;22478;51.740;-1.314;2023-04-15T04:55:29;100147.29;;;-2.11;100.00
36454;BME280;22478;51.740;-1.314;2023-04-15T04:57:56;100149.80;;;-2.50;100.00
36454;BME280;22478;51.740;-1.314;2023-04-15T05:00:24;100155.70;;;-2.46;100.00
36454;BME280;22478;51.740;-1.314;2023-04-15T05:02:51;100160.95;;;-3.06;100.00
36454;BME280;22478;51.740;-1.314;2023-04-15T05:05:19;100163.47;;;-2.86;100.00
36454;BME280;22478;51.740;-1.314;2023-04-15T05:07:45;100166.33;;;-1.58;100.00
36454;BME280;22478;51.740;-1.314;2023-04-15T05:10:13;100170.23;;;-3.17;100.00
36454;BME280;22478;51.740;-1.314;2023-04-15T05:12:40;100176.72;;;-2.19;100.00
36454;BME280;22478;51.740;-1.314;2023-04-15T05:15:08;100180.41;;;-1.61;100.00
36454;BME280;22478;51.740;-1.314;2023-04-15T05:17:36;100178.08;;;0.09;100.00
36454;BME280;22478;51.740;-1.314;2023-04-15T05:20:03;100185.21;;;-1.90;100.00
36454;BME280;22478;51.740;-1.314;2023-04-15T05:22:31;100196.21;;;-2.60;100.00
36454;BME280;22478;51.740;-1.314;2023-04-15T05:24:58;100198.64;;;-1.91;100.00
36454;BME280;22478;51.740;-1.314;2023-04-15T05:27:25;100201.28;;;-2.46;100.00
36454;BME280;22478;51.740;-1.314;2023-04-15T05:29:52;100205.08;;;-2.57;100.00
36454;BME280;22478;51.740;-1.314;2023-04-15T05:32:19;100204.89;;;-0.91;100.00
36454;BME280;22478;51.740;-1.314;2023-04-15T05:34:46;100222.71;;;-1.99;100.00
36454;BME280;22478;51.740;-1.314;2023-04-15T05:37:14;100227.02;;;-2.54;100.00
36454;BME280;22478;51.740;-1.314;2023-04-15T05:39:41;100240.59;;;-2.95;100.00
36454;BME280;22478;51.740;-1.314;2023-04-15T05:42:08;100241.85;;;-1.88;100.00
36454;BME280;22478;51.740;-1.314;2023-04-15T05:44:35;100248.55;;;-2.46;100.00
36454;BME280;22478;51.740;-1.314;2023-04-15T05:47:02;100258.62;;;-1.99;100.00
36454;BME280;22478;51.740;-1.314;2023-04-15T05:49:30;100257.91;;;-1.73;100.00
36454;BME280;22478;51.740;-1.314;2023-04-15T05:51:58;100264.55;;;-2.99;100.00
36454;BME280;22478;51.740;-1.314;2023-04-15T05:54:25;100271.84;;;-2.41;100.00
36454;BME280;22478;51.740;-1.314;2023-04-15T05:56:53;100287.89;;;-2.96;100.00
36454;BME280;22478;51.740;-1.314;2023-04-15T05:59:20;100284.90;;;-1.54;100.00
36454;BME280;22478;51.740;-1.314;2023-04-15T06:01:48;100297.74;;;-2.43;100.00
36454;BME280;22478;51.740;-1.314;2023-04-15T06:04:15;100304.57;;;-3.22;100.00
36454;BME280;22478;51.740;-1.314;2023-04-15T06:06:43;100305.51;;;-2.08;100.00
36454;BME280;22478;51.740;-1.314;2023-04-15T06:09:10;100306.74;;;-2.33;100.00
36454;BME280;22478;51.740;-1.314;2023-04-15T06:11:38;100304.26;;;-1.57;100.00
36454;BME280;22478;51.740;-1.314;2023-04-15T06:14:06;100312.22;;;-2.35;100.00
36454;BME280;22478;51.740;-1.314;2023-04-15T06:16:33;100315.46;;;-2.43;100.00
36454;BME280;22478;51.740;-1.314;2023-04-15T06:19:00;100308.82;;;-1.99;100.00
36454;BME280;22478;51.740;-1.314;2023-04-15T06:21:28;100316.28;;;-2.79;100.00
36454;BME280;22478;51.740;-1.314;2023-04-15T06:23:55;100322.13;;;-2.30;100.00
36454;BME280;22478;51.740;-1.314;2023-04-15T06:26:22;100323.41;;;-2.43;100.00
36454;BME280;22478;51.740;-1.314;2023-04-15T06:28:49;100333.39;;;-2.87;100.00
36454;BME280;22478;51.740;-1.314;2023-04-15T06:31:16;100338.21;;;-1.37;100.00
36454;BME280;22478;51.740;-1.314;2023-04-15T06:33:44;100342.96;;;-2.61;100.00
36454;BME280;22478;51.740;-1.314;2023-04-15T06:36:12;100349.19;;;-1.92;100.00
36454;BME280;22478;51.740;-1.314;2023-04-15T06:38:39;100355.25;;;-2.09;100.00
36454;BME280;22478;51.740;-1.314;2023-04-15T06:41:06;100354.51;;;-1.74;100.00
36454;BME280;22478;51.740;-1.314;2023-04-15T06:43:33;100365.78;;;-1.74;100.00
36454;BME280;22478;51.740;-1.314;2023-04-15T06:46:00;100376.19;;;-1.56;100.00
36454;BME280;22478;51.740;-1.314;2023-04-15T06:48:27;100379.87;;;-2.06;100.00
36454;BME280;22478;51.740;-1.314;2023-04-15T06:50:55;100383.08;;;-1.70;100.00
36454;BME280;22478;51.740;-1.314;2023-04-15T06:53:22;100385.13;;;-0.89;100.00
36454;BME280;22478;51.740;-1.314;2023-04-15T06:55:49;100380.71;;;-0.90;100.00
36454;BME280;22478;51.740;-1.314;2023-04-15T06:58:16;100392.90;;;-2.48;100.00
36454;BME280;22478;51.740;-1.314;2023-04-15T07:00:43;100399.95;;;-2.80;100.00
36454;BME280;22478;51.740;-1.314;2023-04-15T07:03:11;100399.28;;;-1.21;100.00
36454;BME280;22478;51.740;-1.314;2023-04-15T07:05:38;100394.59;;;-1.73;100.00
36454;BME280;22478;51.740;-1.314;2023-04-15T07:08:06;100398.81;;;-0.14;100.00
36454;BME280;22478;51.740;-1.314;2023-04-15T07:10:33;100408.90;;;-1.11;100.00
36454;BME280;22478;51.740;-1.314;2023-04-15T07:13:00;100409.57;;;-0.33;100.00
36454;BME280;22478;51.740;-1.314;2023-04-15T07:15:28;100409.64;;;-0.25;100.00
36454;BME280;22478;51.740;-1.314;2023-04-15T07:17:55;100419.90;;;-0.32;100.00
36454;BME280;22478;51.740;-1.314;2023-04-15T07:20:23;100425.41;;;-1.15;100.00
36454;BME280;22478;51.740;-1.314;2023-04-15T07:22:50;100427.70;;;-0.93;100.00
36454;BME280;22478;51.740;-1.314;2023-04-15T07:25:17;100429.87;;;-1.50;100.00
36454;BME280;22478;51.740;-1.314;2023-04-15T07:27:45;100438.38;;;-0.74;100.00
36454;BME280;22478;51.740;-1.314;2023-04-15T07:30:12;100434.58;;;-0.60;100.00
36454;BME280;22478;51.740;-1.314;2023-04-15T07:32:41;100445.16;;;-1.45;100.00
36454;BME280;22478;51.740;-1.314;2023-04-15T07:35:08;100457.28;;;-0.66;100.00
36454;BME280;22478;51.740;-1.314;2023-04-15T07:37:35;100461.23;;;0.08;100.00
36454;BME280;22478;51.740;-1.314;2023-04-15T07:40:04;100468.83;;;-0.93;100.00
36454;BME280;22478;51.740;-1.314;2023-04-15T07:42:32;100476.38;;;-1.45;100.00
36454;BME280;22478;51.740;-1.314;2023-04-15T07:44:59;100484.97;;;-1.56;100.00
36454;BME280;22478;51.740;-1.314;2023-04-15T07:47:27;100486.68;;;-1.70;100.00
36454;BME280;22478;51.740;-1.314;2023-04-15T07:49:54;100490.63;;;-2.32;100.00
36454;BME280;22478;51.740;-1.314;2023-04-15T07:52:22;100497.13;;;-1.04;100.00
36454;BME280;22478;51.740;-1.314;2023-04-15T07:54:50;100500.66;;;-0.65;100.00
36454;BME280;22478;51.740;-1.314;2023-04-15T07:57:17;100494.90;;;1.29;100.00
36454;BME280;22478;51.740;-1.314;2023-04-15T07:59:44;100508.65;;;-1.49;100.00
36454;BME280;22478;51.740;-1.314;2023-04-15T08:02:12;100505.49;;;-0.68;100.00
36454;BME280;22478;51.740;-1.314;2023-04-15T08:04:39;100516.39;;;0.04;100.00
36454;BME280;22478;51.740;-1.314;2023-04-15T08:07:06;100517.19;;;1.14;100.00
36454;BME280;22478;51.740;-1.314;2023-04-15T08:09:33;100521.14;;;0.87;100.00
36454;BME280;22478;51.740;-1.314;2023-04-15T08:12:00;100522.01;;;0.43;100.00
36454;BME280;22478;51.740;-1.314;2023-04-15T08:14:28;100525.62;;;0.01;100.00
36454;BME280;22478;51.740;-1.314;2023-04-15T08:16:55;100530.24;;;-0.66;100.00
36454;BME280;22478;51.740;-1.314;2023-04-15T08:19:22;100536.09;;;-0.97;100.00
36454;BME280;22478;51.740;-1.314;2023-04-15T08:21:50;100534.93;;;-1.08;100.00
36454;BME280;22478;51.740;-1.314;2023-04-15T08:24:17;100532.63;;;-0.46;100.00
36454;BME280;22478;51.740;-1.314;2023-04-15T08:26:44;100523.64;;;-0.14;100.00
36454;BME280;22478;51.740;-1.314;2023-04-15T08:29:11;100521.40;;;1.89;100.00
36454;BME280;22478;51.740;-1.314;2023-04-15T08:31:39;100527.60;;;1.73;100.00
36454;BME280;22478;51.740;-1.314;2023-04-15T08:34:06;100537.81;;;-0.15;100.00
36454;BME280;22478;51.740;-1.314;2023-04-15T08:36:33;100539.84;;;1.94;100.00
36454;BME280;22478;51.740;-1.314;2023-04-15T08:39:00;100540.80;;;0.77;100.00
36454;BME280;22478;51.740;-1.314;2023-04-15T08:41:28;100545.36;;;1.49;100.00
36454;BME280;22478;51.740;-1.314;2023-04-15T08:44:02;100554.51;;;-0.14;100.00
36454;BME280;22478;51.740;-1.314;2023-04-15T08:46:30;100562.18;;;0.27;100.00
36454;BME280;22478;51.740;-1.314;2023-04-15T08:48:58;100568.57;;;-0.04;100.00
36454;BME280;22478;51.740;-1.314;2023-04-15T08:51:26;100575.04;;;0.32;100.00
36454;BME280;22478;51.740;-1.314;2023-04-15T08:53:54;100575.92;;;-0.03;100.00
36454;BME280;22478;51.740;-1.314;2023-04-15T08:56:24;100589.87;;;-0.08;100.00
36454;BME280;22478;51.740;-1.314;2023-04-15T08:58:52;100581.77;;;2.49;100.00
36454;BME280;22478;51.740;-1.314;2023-04-15T09:01:19;100592.47;;;0.89;100.00
36454;BME280;22478;51.740;-1.314;2023-04-15T09:03:48;100588.54;;;2.60;100.00
36454;BME280;22478;51.740;-1.314;2023-04-15T09:06:16;100597.44;;;1.99;100.00
36454;BME280;22478;51.740;-1.314;2023-04-15T09:08:44;100599.19;;;1.56;100.00
36454;BME280;22478;51.740;-1.314;2023-04-15T09:11:11;100609.07;;;0.69;100.00
36454;BME280;22478;51.740;-1.314;2023-04-15T09:13:39;100612.41;;;0.60;100.00
36454;BME280;22478;51.740;-1.314;2023-04-15T09:16:06;100601.73;;;2.90;100.00
36454;BME280;22478;51.740;-1.314;2023-04-15T09:18:34;100606.07;;;3.42;100.00
36454;BME280;22478;51.740;-1.314;2023-04-15T09:21:04;100625.75;;;0.66;100.00
36454;BME280;22478;51.740;-1.314;2023-04-15T09:23:32;100628.51;;;2.00;100.00
36454;BME280;22478;51.740;-1.314;2023-04-15T09:26:00;100626.33;;;0.45;100.00
36454;BME280;22478;51.740;-1.314;2023-04-15T09:28:28;100630.31;;;0.49;100.00
36454;BME280;22478;51.740;-1.314;2023-04-15T09:30:55;100639.23;;;0.73;100.00
36454;BME280;22478;51.740;-1.314;2023-04-15T09:33:24;100644.78;;;1.56;100.00
36454;BME280;22478;51.740;-1.314;2023-04-15T09:35:58;100645.64;;;0.56;100.00
36454;BME280;22478;51.740;-1.314;2023-04-15T09:38:26;100650.37;;;0.39;100.00
36454;BME280;22478;51.740;-1.314;2023-04-15T09:40:55;100652.48;;;-0.13;100.00
36454;BME280;22478;51.740;-1.314;2023-04-15T09:43:26;100659.05;;;1.05;100.00
36454;BME280;22478;51.740;-1.314;2023-04-15T09:46:02;100656.34;;;1.36;100.00
36454;BME280;22478;51.740;-1.314;2023-04-15T09:48:30;100656.73;;;1.04;100.00
36454;BME280;22478;51.740;-1.314;2023-04-15T09:50:57;100656.74;;;1.66;100.00
36454;BME280;22478;51.740;-1.314;2023-04-15T09:53:25;100659.88;;;2.60;100.00
36454;BME280;22478;51.740;-1.314;2023-04-15T09:55:54;100656.01;;;3.19;100.00
36454;BME280;22478;51.740;-1.314;2023-04-15T09:58:23;100658.97;;;3.01;100.00
36454;BME280;22478;51.740;-1.314;2023-04-15T10:00:52;100668.57;;;2.63;100.00
36454;BME280;22478;51.740;-1.314;2023-04-15T10:03:21;100674.55;;;0.62;100.00
36454;BME280;22478;51.740;-1.314;2023-04-15T10:05:50;100664.55;;;4.38;100.00
36454;BME280;22478;51.740;-1.314;2023-04-15T10:08:19;100676.72;;;1.69;100.00
36454;BME280;22478;51.740;-1.314;2023-04-15T10:10:47;100680.15;;;2.10;100.00
36454;BME280;22478;51.740;-1.314;2023-04-15T10:13:16;100684.81;;;2.13;100.00
36454;BME280;22478;51.740;-1.314;2023-04-15T10:15:49;100672.65;;;5.00;100.00
36454;BME280;22478;51.740;-1.314;2023-04-15T10:18:19;100674.97;;;3.79;100.00
36454;BME280;22478;51.740;-1.314;2023-04-15T10:20:47;100669.66;;;5.74;100.00
36454;BME280;22478;51.740;-1.314;2023-04-15T10:23:15;100672.99;;;5.39;100.00
36454;BME280;22478;51.740;-1.314;2023-04-15T10:25:42;100677.71;;;4.31;100.00
36454;BME280;22478;51.740;-1.314;2023-04-15T10:28:10;100681.23;;;4.78;100.00
36454;BME280;22478;51.740;-1.314;2023-04-15T10:30:37;100693.01;;;2.98;100.00
36454;BME280;22478;51.740;-1.314;2023-04-15T10:33:06;100699.09;;;2.55;100.00
36454;BME280;22478;51.740;-1.314;2023-04-15T10:35:36;100692.99;;;4.29;100.00
36454;BME280;22478;51.740;-1.314;2023-04-15T10:38:30;100690.46;;;6.02;100.00
36454;BME280;22478;51.740;-1.314;2023-04-15T10:41:12;100686.00;;;9.07;100.00
36454;BME280;22478;51.740;-1.314;2023-04-15T10:43:44;100694.33;;;5.80;100.00
36454;BME280;22478;51.740;-1.314;2023-04-15T10:46:11;100694.25;;;7.57;100.00
36454;BME280;22478;51.740;-1.314;2023-04-15T10:48:46;100698.62;;;7.42;100.00
36454;BME280;22478;51.740;-1.314;2023-04-15T10:51:14;100704.64;;;4.66;100.00
36454;BME280;22478;51.740;-1.314;2023-04-15T10:53:41;100706.72;;;6.16;100.00
36454;BME280;22478;51.740;-1.314;2023-04-15T10:56:09;100718.21;;;4.73;100.00
36454;BME280;22478;51.740;-1.314;2023-04-15T10:58:41;100706.59;;;10.25;100.00
36454;BME280;22478;51.740;-1.314;2023-04-15T11:01:09;100709.32;;;8.70;100.00
36454;BME280;22478;51.740;-1.314;2023-04-15T11:03:38;100728.19;;;5.97;100.00
36454;BME280;22478;51.740;-1.314;2023-04-15T11:06:06;100730.99;;;5.45;100.00
36454;BME280;22478;51.740;-1.314;2023-04-15T11:09:04;100733.87;;;6.40;100.00
36454;BME280;22478;51.740;-1.314;2023-04-15T11:12:36;100736.08;;;6.01;100.00
36454;BME280;22478;51.740;-1.314;2023-04-15T11:15:37;100738.53;;;5.44;100.00
36454;BME280;22478;51.740;-1.314;2023-04-15T11:18:09;100731.62;;;9.49;100.00
36454;BME280;22478;51.740;-1.314;2023-04-15T11:20:38;100733.71;;;9.62;99.26
36454;BME280;22478;51.740;-1.314;2023-04-15T11:23:07;100747.71;;;6.08;100.00
36454;BME280;22478;51.740;-1.314;2023-04-15T11:25:34;100744.94;;;8.06;100.00
36454;BME280;22478;51.740;-1.314;2023-04-15T11:28:03;100742.76;;;7.90;100.00
36454;BME280;22478;51.740;-1.314;2023-04-15T11:30:32;100741.47;;;8.25;100.00
36454;BME280;22478;51.740;-1.314;2023-04-15T11:33:01;100743.15;;;9.14;100.00
36454;BME280;22478;51.740;-1.314;2023-04-15T11:35:29;100745.65;;;8.41;100.00
36454;BME280;22478;51.740;-1.314;2023-04-15T11:37:57;100755.97;;;5.94;100.00
36454;BME280;22478;51.740;-1.314;2023-04-15T11:40:25;100749.76;;;9.07;100.00
36454;BME280;22478;51.740;-1.314;2023-04-15T11:43:03;100746.68;;;8.85;100.00
36454;BME280;22478;51.740;-1.314;2023-04-15T11:45:31;100752.35;;;10.44;100.00
36454;BME280;22478;51.740;-1.314;2023-04-15T11:48:05;100754.74;;;10.45;84.17
36454;BME280;22478;51.740;-1.314;2023-04-15T11:50:33;100763.43;;;8.75;90.60
36454;BME280;22478;51.740;-1.314;2023-04-15T11:53:02;100768.18;;;7.75;99.30
36454;BME280;22478;51.740;-1.314;2023-04-15T11:55:30;100768.66;;;10.06;88.94
36454;BME280;22478;51.740;-1.314;2023-04-15T11:58:17;100769.19;;;8.98;91.95
36454;BME280;22478;51.740;-1.314;2023-04-15T12:00:47;100774.01;;;9.61;92.89
36454;BME280;22478;51.740;-1.314;2023-04-15T12:03:18;100784.13;;;6.09;100.00
36454;BME280;22478;51.740;-1.314;2023-04-15T12:06:19;100783.55;;;5.65;100.00
36454;BME280;22478;51.740;-1.314;2023-04-15T12:08:50;100790.35;;;5.92;100.00
36454;BME280;22478;51.740;-1.314;2023-04-15T12:11:17;100791.18;;;5.52;100.00
36454;BME280;22478;51.740;-1.314;2023-04-15T12:13:46;100786.89;;;5.33;100.00
36454;BME280;22478;51.740;-1.314;2023-04-15T12:16:16;100778.74;;;9.31;90.45
36454;BME280;22478;51.740;-1.314;2023-04-15T12:18:44;100795.53;;;6.75;100.00
36454;BME280;22478;51.740;-1.314;2023-04-15T12:21:12;100798.72;;;6.61;100.00
36454;BME280;22478;51.740;-1.314;2023-04-15T12:23:47;100798.78;;;5.69;100.00
36454;BME280;22478;51.740;-1.314;2023-04-15T12:26:14;100808.18;;;4.22;100.00
36454;BME280;22478;51.740;-1.314;2023-04-15T12:28:41;100811.67;;;4.43;100.00
36454;BME280;22478;51.740;-1.314;2023-04-15T12:31:09;100810.97;;;6.12;100.00
36454;BME280;22478;51.740;-1.314;2023-04-15T12:33:36;100809.68;;;5.24;100.00
36454;BME280;22478;51.740;-1.314;2023-04-15T12:36:04;100811.01;;;4.22;100.00
36454;BME280;22478;51.740;-1.314;2023-04-15T12:38:31;100813.57;;;5.44;100.00
36454;BME280;22478;51.740;-1.314;2023-04-15T12:40:58;100819.19;;;7.20;100.00